Raeren, Belgium
Current Conditions -  °F | °C
As of 2:25 PM on Friday 28 Nov 2014 (Local Time) from EBLB Reporting Station
Few Clouds Few Clouds  
Wind Chill: 54°   Ceiling: Unl
Heat Index: 54°   Visibility: 6mi
Dew Point: 37°   Wind: 7mph
Humidity: 54%   Direction: 120°ESE
Pressure: 29.74"   Gusts: NA
Location:  50.67°N, 6.12°E
Report Text: EBLB 281325Z AUTO 12006KT 9999 FEW110/// 12/03 Q1007 BLU
Loading
Personal Weather Stations






























Interactive Weather Map New forecast layout! Learn more

10-Day Weather Forecast

Advertisements
Track Severe Weather on mobile